sensor_id;sensor_type;location;lat;lon;timestamp;P1;durP1;ratioP1;P2;durP2;ratioP2
5841;SDS011;2947;52.276;9.946;2023-09-19T00:00:18;6.22;;;1.48;;
5841;SDS011;2947;52.276;9.946;2023-09-19T00:02:46;5.03;;;1.02;;
5841;SDS011;2947;52.276;9.946;2023-09-19T00:05:22;2.83;;;1.25;;
5841;SDS011;2947;52.276;9.946;2023-09-19T00:07:52;2.70;;;1.30;;
5841;SDS011;2947;52.276;9.946;2023-09-19T00:10:20;3.78;;;1.17;;
5841;SDS011;2947;52.276;9.946;2023-09-19T00:12:49;3.35;;;1.42;;
5841;SDS011;2947;52.276;9.946;2023-09-19T00:15:17;3.78;;;1.10;;
5841;SDS011;2947;52.276;9.946;2023-09-19T00:17:43;3.63;;;1.42;;
5841;SDS011;2947;52.276;9.946;2023-09-19T00:20:09;4.35;;;1.10;;
5841;SDS011;2947;52.276;9.946;2023-09-19T00:22:41;2.90;;;1.48;;
5841;SDS011;2947;52.276;9.946;2023-09-19T00:25:10;4.80;;;1.27;;
5841;SDS011;2947;52.276;9.946;2023-09-19T00:27:39;3.78;;;1.17;;
5841;SDS011;2947;52.276;9.946;2023-09-19T00:30:10;4.25;;;1.83;;
5841;SDS011;2947;52.276;9.946;2023-09-19T00:32:49;4.75;;;1.40;;
5841;SDS011;2947;52.276;9.946;2023-09-19T00:35:22;4.45;;;1.67;;
5841;SDS011;2947;52.276;9.946;2023-09-19T00:37:49;5.13;;;1.80;;
5841;SDS011;2947;52.276;9.946;2023-09-19T00:40:18;4.38;;;1.50;;
5841;SDS011;2947;52.276;9.946;2023-09-19T00:42:46;6.85;;;1.35;;
5841;SDS011;2947;52.276;9.946;2023-09-19T00:45:13;4.28;;;1.50;;
5841;SDS011;2947;52.276;9.946;2023-09-19T00:47:44;3.38;;;1.63;;
5841;SDS011;2947;52.276;9.946;2023-09-19T00:50:20;4.00;;;1.90;;
5841;SDS011;2947;52.276;9.946;2023-09-19T00:52:50;4.22;;;1.98;;
5841;SDS011;2947;52.276;9.946;2023-09-19T00:55:20;5.47;;;2.70;;
5841;SDS011;2947;52.276;9.946;2023-09-19T00:57:47;7.22;;;2.83;;
5841;SDS011;2947;52.276;9.946;2023-09-19T01:00:14;9.27;;;3.22;;
5841;SDS011;2947;52.276;9.946;2023-09-19T01:02:44;4.30;;;2.75;;
5841;SDS011;2947;52.276;9.946;2023-09-19T01:05:11;7.70;;;2.83;;
5841;SDS011;2947;52.276;9.946;2023-09-19T01:07:37;5.53;;;3.00;;
5841;SDS011;2947;52.276;9.946;2023-09-19T01:10:05;5.72;;;3.00;;
5841;SDS011;2947;52.276;9.946;2023-09-19T01:24:43;6.97;;;3.60;;
5841;SDS011;2947;52.276;9.946;2023-09-19T01:29:51;10.50;;;3.15;;
5841;SDS011;2947;52.276;9.946;2023-09-19T01:32:19;11.43;;;4.80;;
5841;SDS011;2947;52.276;9.946;2023-09-19T01:34:55;7.35;;;3.97;;
5841;SDS011;2947;52.276;9.946;2023-09-19T01:37:29;7.38;;;4.07;;
5841;SDS011;2947;52.276;9.946;2023-09-19T01:40:06;6.28;;;3.35;;
5841;SDS011;2947;52.276;9.946;2023-09-19T01:54:32;7.47;;;4.00;;
5841;SDS011;2947;52.276;9.946;2023-09-19T01:57:07;7.38;;;4.30;;
5841;SDS011;2947;52.276;9.946;2023-09-19T02:00:10;8.27;;;4.07;;
5841;SDS011;2947;52.276;9.946;2023-09-19T02:02:37;8.43;;;3.85;;
5841;SDS011;2947;52.276;9.946;2023-09-19T02:05:05;8.52;;;3.88;;
5841;SDS011;2947;52.276;9.946;2023-09-19T02:07:31;9.73;;;4.78;;
5841;SDS011;2947;52.276;9.946;2023-09-19T02:09:57;10.38;;;3.70;;
5841;SDS011;2947;52.276;9.946;2023-09-19T02:12:30;14.60;;;3.90;;
5841;SDS011;2947;52.276;9.946;2023-09-19T02:14:57;7.97;;;3.60;;
5841;SDS011;2947;52.276;9.946;2023-09-19T02:17:24;10.35;;;3.58;;
5841;SDS011;2947;52.276;9.946;2023-09-19T02:19:56;8.00;;;3.10;;
5841;SDS011;2947;52.276;9.946;2023-09-19T02:22:22;6.38;;;3.35;;
5841;SDS011;2947;52.276;9.946;2023-09-19T02:24:47;6.88;;;3.78;;
5841;SDS011;2947;52.276;9.946;2023-09-19T02:27:13;7.45;;;3.33;;
5841;SDS011;2947;52.276;9.946;2023-09-19T02:29:41;7.78;;;3.15;;
5841;SDS011;2947;52.276;9.946;2023-09-19T02:32:07;6.97;;;3.40;;
5841;SDS011;2947;52.276;9.946;2023-09-19T02:34:34;7.78;;;3.55;;
5841;SDS011;2947;52.276;9.946;2023-09-19T02:37:04;10.30;;;4.10;;
5841;SDS011;2947;52.276;9.946;2023-09-19T02:39:34;12.15;;;4.10;;
5841;SDS011;2947;52.276;9.946;2023-09-19T02:42:00;9.48;;;4.32;;
5841;SDS011;2947;52.276;9.946;2023-09-19T02:44:29;10.00;;;3.50;;
5841;SDS011;2947;52.276;9.946;2023-09-19T02:46:55;8.18;;;4.03;;
5841;SDS011;2947;52.276;9.946;2023-09-19T02:49:22;10.05;;;4.88;;
5841;SDS011;2947;52.276;9.946;2023-09-19T02:51:48;11.65;;;4.57;;
5841;SDS011;2947;52.276;9.946;2023-09-19T02:54:14;9.43;;;4.00;;
5841;SDS011;2947;52.276;9.946;2023-09-19T02:56:40;7.95;;;4.18;;
5841;SDS011;2947;52.276;9.946;2023-09-19T02:59:07;11.50;;;4.30;;
5841;SDS011;2947;52.276;9.946;2023-09-19T03:01:35;9.23;;;3.60;;
5841;SDS011;2947;52.276;9.946;2023-09-19T03:04:02;6.78;;;4.03;;
5841;SDS011;2947;52.276;9.946;2023-09-19T03:06:33;8.57;;;4.00;;
5841;SDS011;2947;52.276;9.946;2023-09-19T03:08:59;10.80;;;4.15;;
5841;SDS011;2947;52.276;9.946;2023-09-19T03:11:25;7.47;;;4.15;;
5841;SDS011;2947;52.276;9.946;2023-09-19T03:13:54;7.80;;;4.40;;
5841;SDS011;2947;52.276;9.946;2023-09-19T03:16:20;11.00;;;4.40;;
5841;SDS011;2947;52.276;9.946;2023-09-19T03:18:50;9.40;;;4.85;;
5841;SDS011;2947;52.276;9.946;2023-09-19T03:21:16;6.95;;;4.38;;
5841;SDS011;2947;52.276;9.946;2023-09-19T03:23:42;14.13;;;5.43;;
5841;SDS011;2947;52.276;9.946;2023-09-19T03:26:12;10.23;;;5.03;;
5841;SDS011;2947;52.276;9.946;2023-09-19T03:28:40;11.30;;;5.13;;
5841;SDS011;2947;52.276;9.946;2023-09-19T03:31:07;9.27;;;4.78;;
5841;SDS011;2947;52.276;9.946;2023-09-19T03:33:34;9.65;;;5.22;;
5841;SDS011;2947;52.276;9.946;2023-09-19T03:36:00;8.82;;;5.05;;
5841;SDS011;2947;52.276;9.946;2023-09-19T03:38:31;13.45;;;6.10;;
5841;SDS011;2947;52.276;9.946;2023-09-19T03:40:59;10.93;;;5.60;;
5841;SDS011;2947;52.276;9.946;2023-09-19T03:43:26;13.50;;;4.82;;
5841;SDS011;2947;52.276;9.946;2023-09-19T03:45:52;9.05;;;5.07;;
5841;SDS011;2947;52.276;9.946;2023-09-19T03:48:22;9.32;;;4.93;;
5841;SDS011;2947;52.276;9.946;2023-09-19T03:50:48;14.45;;;4.63;;
5841;SDS011;2947;52.276;9.946;2023-09-19T03:53:13;10.63;;;4.63;;
5841;SDS011;2947;52.276;9.946;2023-09-19T03:55:39;21.25;;;6.53;;
5841;SDS011;2947;52.276;9.946;2023-09-19T03:58:05;16.73;;;5.30;;
5841;SDS011;2947;52.276;9.946;2023-09-19T04:00:31;11.30;;;4.05;;
5841;SDS011;2947;52.276;9.946;2023-09-19T04:02:57;6.93;;;3.97;;
5841;SDS011;2947;52.276;9.946;2023-09-19T04:05:23;11.82;;;4.38;;
5841;SDS011;2947;52.276;9.946;2023-09-19T04:07:49;11.55;;;4.38;;
5841;SDS011;2947;52.276;9.946;2023-09-19T04:10:18;7.75;;;4.10;;
5841;SDS011;2947;52.276;9.946;2023-09-19T04:12:53;10.13;;;4.60;;
5841;SDS011;2947;52.276;9.946;2023-09-19T04:15:20;12.90;;;4.70;;
5841;SDS011;2947;52.276;9.946;2023-09-19T04:17:49;9.85;;;3.83;;
5841;SDS011;2947;52.276;9.946;2023-09-19T04:20:16;12.07;;;4.43;;
5841;SDS011;2947;52.276;9.946;2023-09-19T04:22:44;8.13;;;4.53;;
5841;SDS011;2947;52.276;9.946;2023-09-19T04:25:11;9.43;;;4.20;;
5841;SDS011;2947;52.276;9.946;2023-09-19T04:27:37;15.68;;;5.63;;
5841;SDS011;2947;52.276;9.946;2023-09-19T04:30:03;12.90;;;5.95;;
5841;SDS011;2947;52.276;9.946;2023-09-19T04:32:35;9.32;;;4.97;;
5841;SDS011;2947;52.276;9.946;2023-09-19T04:35:01;10.82;;;5.03;;
5841;SDS011;2947;52.276;9.946;2023-09-19T04:37:30;16.13;;;4.97;;
5841;SDS011;2947;52.276;9.946;2023-09-19T04:39:56;8.30;;;4.60;;
5841;SDS011;2947;52.276;9.946;2023-09-19T04:42:22;16.23;;;5.60;;
5841;SDS011;2947;52.276;9.946;2023-09-19T04:44:49;14.93;;;5.15;;
5841;SDS011;2947;52.276;9.946;2023-09-19T04:47:18;10.50;;;4.68;;
5841;SDS011;2947;52.276;9.946;2023-09-19T04:49:44;10.00;;;4.72;;
5841;SDS011;2947;52.276;9.946;2023-09-19T04:52:10;15.45;;;5.20;;
5841;SDS011;2947;52.276;9.946;2023-09-19T04:54:35;15.25;;;5.32;;
5841;SDS011;2947;52.276;9.946;2023-09-19T04:57:01;11.27;;;4.80;;
5841;SDS011;2947;52.276;9.946;2023-09-19T04:59:27;12.18;;;4.90;;
5841;SDS011;2947;52.276;9.946;2023-09-19T05:01:53;9.65;;;4.32;;
5841;SDS011;2947;52.276;9.946;2023-09-19T05:04:19;12.20;;;4.70;;
5841;SDS011;2947;52.276;9.946;2023-09-19T05:06:44;7.63;;;4.78;;
5841;SDS011;2947;52.276;9.946;2023-09-19T05:09:10;10.82;;;5.00;;
5841;SDS011;2947;52.276;9.946;2023-09-19T05:11:36;9.00;;;4.93;;
5841;SDS011;2947;52.276;9.946;2023-09-19T05:14:03;17.52;;;5.57;;
5841;SDS011;2947;52.276;9.946;2023-09-19T05:16:29;14.43;;;5.75;;
5841;SDS011;2947;52.276;9.946;2023-09-19T05:18:56;11.65;;;5.30;;
5841;SDS011;2947;52.276;9.946;2023-09-19T05:21:25;15.95;;;4.55;;
5841;SDS011;2947;52.276;9.946;2023-09-19T05:23:53;11.82;;;5.07;;
5841;SDS011;2947;52.276;9.946;2023-09-19T05:26:19;14.25;;;5.38;;
5841;SDS011;2947;52.276;9.946;2023-09-19T05:28:45;15.52;;;5.53;;
5841;SDS011;2947;52.276;9.946;2023-09-19T05:31:13;12.02;;;5.20;;
5841;SDS011;2947;52.276;9.946;2023-09-19T05:33:40;17.17;;;4.95;;
5841;SDS011;2947;52.276;9.946;2023-09-19T05:36:06;12.20;;;4.72;;
5841;SDS011;2947;52.276;9.946;2023-09-19T05:38:34;10.30;;;5.40;;
5841;SDS011;2947;52.276;9.946;2023-09-19T05:41:00;14.95;;;6.32;;
5841;SDS011;2947;52.276;9.946;2023-09-19T05:43:27;16.40;;;4.97;;
5841;SDS011;2947;52.276;9.946;2023-09-19T05:45:52;11.70;;;4.97;;
5841;SDS011;2947;52.276;9.946;2023-09-19T05:48:21;14.32;;;5.20;;
5841;SDS011;2947;52.276;9.946;2023-09-19T05:50:47;9.65;;;4.88;;
5841;SDS011;2947;52.276;9.946;2023-09-19T05:53:14;10.30;;;4.90;;
5841;SDS011;2947;52.276;9.946;2023-09-19T05:55:40;12.18;;;4.60;;
5841;SDS011;2947;52.276;9.946;2023-09-19T05:58:06;10.25;;;4.50;;
5841;SDS011;2947;52.276;9.946;2023-09-19T06:00:32;13.45;;;5.40;;
5841;SDS011;2947;52.276;9.946;2023-09-19T06:02:58;14.15;;;5.03;;
5841;SDS011;2947;52.276;9.946;2023-09-19T06:05:25;14.40;;;4.55;;
5841;SDS011;2947;52.276;9.946;2023-09-19T06:07:53;10.07;;;4.47;;
5841;SDS011;2947;52.276;9.946;2023-09-19T06:10:19;15.80;;;4.60;;
5841;SDS011;2947;52.276;9.946;2023-09-19T06:12:48;14.30;;;5.07;;
5841;SDS011;2947;52.276;9.946;2023-09-19T06:15:14;13.25;;;4.80;;
5841;SDS011;2947;52.276;9.946;2023-09-19T06:17:47;10.88;;;4.40;;
5841;SDS011;2947;52.276;9.946;2023-09-19T06:20:21;15.23;;;4.40;;
5841;SDS011;2947;52.276;9.946;2023-09-19T06:22:49;8.73;;;4.28;;
5841;SDS011;2947;52.276;9.946;2023-09-19T06:25:15;14.15;;;4.28;;
5841;SDS011;2947;52.276;9.946;2023-09-19T06:27:48;15.48;;;4.15;;
5841;SDS011;2947;52.276;9.946;2023-09-19T06:30:22;17.08;;;4.47;;
5841;SDS011;2947;52.276;9.946;2023-09-19T06:32:49;12.55;;;3.80;;
5841;SDS011;2947;52.276;9.946;2023-09-19T06:35:20;10.35;;;4.30;;
5841;SDS011;2947;52.276;9.946;2023-09-19T06:37:46;14.18;;;4.47;;
5841;SDS011;2947;52.276;9.946;2023-09-19T06:40:13;10.43;;;3.72;;
5841;SDS011;2947;52.276;9.946;2023-09-19T06:42:43;9.13;;;4.15;;
5841;SDS011;2947;52.276;9.946;2023-09-19T06:45:11;11.57;;;3.90;;
5841;SDS011;2947;52.276;9.946;2023-09-19T06:47:42;8.57;;;4.00;;
5841;SDS011;2947;52.276;9.946;2023-09-19T06:50:14;10.27;;;3.95;;
5841;SDS011;2947;52.276;9.946;2023-09-19T06:52:40;12.57;;;3.75;;
5841;SDS011;2947;52.276;9.946;2023-09-19T06:55:06;16.40;;;3.72;;
5841;SDS011;2947;52.276;9.946;2023-09-19T06:57:34;11.70;;;3.97;;
5841;SDS011;2947;52.276;9.946;2023-09-19T07:00:00;14.48;;;3.83;;
5841;SDS011;2947;52.276;9.946;2023-09-19T07:02:27;13.85;;;3.60;;
5841;SDS011;2947;52.276;9.946;2023-09-19T07:04:53;14.45;;;3.92;;
5841;SDS011;2947;52.276;9.946;2023-09-19T07:07:19;13.50;;;3.38;;
5841;SDS011;2947;52.276;9.946;2023-09-19T07:09:44;9.65;;;3.22;;
5841;SDS011;2947;52.276;9.946;2023-09-19T07:12:10;11.02;;;3.15;;
5841;SDS011;2947;52.276;9.946;2023-09-19T07:14:36;13.60;;;3.20;;
5841;SDS011;2947;52.276;9.946;2023-09-19T07:17:02;12.27;;;2.90;;
5841;SDS011;2947;52.276;9.946;2023-09-19T07:19:28;11.25;;;2.95;;
5841;SDS011;2947;52.276;9.946;2023-09-19T07:21:56;13.35;;;2.45;;
5841;SDS011;2947;52.276;9.946;2023-09-19T07:24:24;11.90;;;2.40;;
5841;SDS011;2947;52.276;9.946;2023-09-19T07:26:52;9.55;;;2.70;;
5841;SDS011;2947;52.276;9.946;2023-09-19T07:29:18;9.70;;;2.28;;
5841;SDS011;2947;52.276;9.946;2023-09-19T07:31:43;11.57;;;2.60;;
5841;SDS011;2947;52.276;9.946;2023-09-19T07:34:09;8.93;;;1.90;;
5841;SDS011;2947;52.276;9.946;2023-09-19T07:36:35;17.02;;;2.83;;
5841;SDS011;2947;52.276;9.946;2023-09-19T07:39:03;14.20;;;2.33;;
5841;SDS011;2947;52.276;9.946;2023-09-19T07:41:31;14.85;;;2.78;;
5841;SDS011;2947;52.276;9.946;2023-09-19T07:43:58;12.43;;;2.38;;
5841;SDS011;2947;52.276;9.946;2023-09-19T07:46:24;11.95;;;2.25;;
5841;SDS011;2947;52.276;9.946;2023-09-19T07:48:51;9.18;;;2.67;;
5841;SDS011;2947;52.276;9.946;2023-09-19T07:51:17;10.35;;;2.20;;
5841;SDS011;2947;52.276;9.946;2023-09-19T07:53:43;7.03;;;2.10;;
5841;SDS011;2947;52.276;9.946;2023-09-19T07:56:09;7.53;;;2.80;;
5841;SDS011;2947;52.276;9.946;2023-09-19T07:58:35;7.82;;;1.70;;
5841;SDS011;2947;52.276;9.946;2023-09-19T08:01:06;13.15;;;2.75;;
5841;SDS011;2947;52.276;9.946;2023-09-19T08:03:38;14.27;;;2.33;;
5841;SDS011;2947;52.276;9.946;2023-09-19T08:06:05;10.73;;;2.80;;
5841;SDS011;2947;52.276;9.946;2023-09-19T08:08:32;11.73;;;2.15;;
5841;SDS011;2947;52.276;9.946;2023-09-19T08:11:02;6.85;;;2.17;;
5841;SDS011;2947;52.276;9.946;2023-09-19T08:13:36;10.93;;;2.40;;
5841;SDS011;2947;52.276;9.946;2023-09-19T08:16:08;8.35;;;1.63;;
5841;SDS011;2947;52.276;9.946;2023-09-19T08:18:37;24.25;;;2.50;;
5841;SDS011;2947;52.276;9.946;2023-09-19T08:21:05;10.40;;;2.38;;
5841;SDS011;2947;52.276;9.946;2023-09-19T08:23:35;11.50;;;2.28;;
5841;SDS011;2947;52.276;9.946;2023-09-19T08:26:04;7.40;;;1.83;;
5841;SDS011;2947;52.276;9.946;2023-09-19T08:28:34;10.55;;;2.45;;
5841;SDS011;2947;52.276;9.946;2023-09-19T08:31:04;8.15;;;2.13;;
5841;SDS011;2947;52.276;9.946;2023-09-19T08:33:31;8.35;;;1.67;;
5841;SDS011;2947;52.276;9.946;2023-09-19T08:35:58;7.28;;;1.63;;
5841;SDS011;2947;52.276;9.946;2023-09-19T08:38:24;9.27;;;2.05;;
5841;SDS011;2947;52.276;9.946;2023-09-19T08:40:56;8.05;;;1.70;;
5841;SDS011;2947;52.276;9.946;2023-09-19T08:43:24;8.73;;;1.83;;
5841;SDS011;2947;52.276;9.946;2023-09-19T08:45:50;7.38;;;2.17;;
5841;SDS011;2947;52.276;9.946;2023-09-19T08:48:25;9.95;;;2.00;;
5841;SDS011;2947;52.276;9.946;2023-09-19T08:50:56;7.40;;;2.47;;
5841;SDS011;2947;52.276;9.946;2023-09-19T08:56:17;7.18;;;2.10;;
5841;SDS011;2947;52.276;9.946;2023-09-19T08:58:46;9.05;;;2.67;;
5841;SDS011;2947;52.276;9.946;2023-09-19T09:01:18;11.55;;;2.42;;
5841;SDS011;2947;52.276;9.946;2023-09-19T09:03:51;8.43;;;2.30;;
5841;SDS011;2947;52.276;9.946;2023-09-19T09:06:18;6.03;;;1.80;;
5841;SDS011;2947;52.276;9.946;2023-09-19T09:08:45;6.97;;;1.60;;
5841;SDS011;2947;52.276;9.946;2023-09-19T09:11:12;10.52;;;2.00;;
5841;SDS011;2947;52.276;9.946;2023-09-19T09:13:41;11.43;;;2.17;;
5841;SDS011;2947;52.276;9.946;2023-09-19T09:16:09;9.32;;;2.10;;
5841;SDS011;2947;52.276;9.946;2023-09-19T09:18:36;5.75;;;1.83;;
5841;SDS011;2947;52.276;9.946;2023-09-19T09:21:02;13.10;;;2.40;;
5841;SDS011;2947;52.276;9.946;2023-09-19T09:23:29;8.18;;;1.83;;
5841;SDS011;2947;52.276;9.946;2023-09-19T09:25:57;7.60;;;1.80;;
5841;SDS011;2947;52.276;9.946;2023-09-19T09:28:28;8.52;;;1.80;;
5841;SDS011;2947;52.276;9.946;2023-09-19T09:30:56;6.00;;;1.75;;
5841;SDS011;2947;52.276;9.946;2023-09-19T09:33:33;9.40;;;1.73;;
5841;SDS011;2947;52.276;9.946;2023-09-19T09:36:00;7.10;;;2.20;;
5841;SDS011;2947;52.276;9.946;2023-09-19T09:38:28;15.30;;;3.22;;
5841;SDS011;2947;52.276;9.946;2023-09-19T09:41:09;11.98;;;1.52;;
5841;SDS011;2947;52.276;9.946;2023-09-19T09:43:35;10.48;;;1.98;;
5841;SDS011;2947;52.276;9.946;2023-09-19T09:49:05;9.05;;;1.80;;
5841;SDS011;2947;52.276;9.946;2023-09-19T09:52:18;7.57;;;1.88;;
5841;SDS011;2947;52.276;9.946;2023-09-19T09:54:57;6.68;;;1.52;;
5841;SDS011;2947;52.276;9.946;2023-09-19T09:57:32;9.52;;;2.63;;
5841;SDS011;2947;52.276;9.946;2023-09-19T09:59:59;7.80;;;2.20;;
5841;SDS011;2947;52.276;9.946;2023-09-19T10:02:38;8.43;;;1.85;;
5841;SDS011;2947;52.276;9.946;2023-09-19T10:05:15;11.30;;;2.70;;
5841;SDS011;2947;52.276;9.946;2023-09-19T10:07:47;7.40;;;1.70;;
5841;SDS011;2947;52.276;9.946;2023-09-19T10:10:30;5.72;;;1.52;;
5841;SDS011;2947;52.276;9.946;2023-09-19T10:13:09;6.90;;;2.67;;
5841;SDS011;2947;52.276;9.946;2023-09-19T10:15:43;10.32;;;2.20;;
5841;SDS011;2947;52.276;9.946;2023-09-19T10:18:19;8.13;;;1.80;;
5841;SDS011;2947;52.276;9.946;2023-09-19T10:20:47;4.53;;;1.70;;
5841;SDS011;2947;52.276;9.946;2023-09-19T10:23:20;7.40;;;2.10;;
5841;SDS011;2947;52.276;9.946;2023-09-19T10:25:50;9.25;;;1.98;;
5841;SDS011;2947;52.276;9.946;2023-09-19T10:28:18;12.00;;;2.05;;
5841;SDS011;2947;52.276;9.946;2023-09-19T10:30:48;5.85;;;1.35;;
5841;SDS011;2947;52.276;9.946;2023-09-19T10:33:19;7.20;;;1.52;;
5841;SDS011;2947;52.276;9.946;2023-09-19T10:35:54;11.00;;;2.17;;
5841;SDS011;2947;52.276;9.946;2023-09-19T10:38:25;9.48;;;1.83;;
5841;SDS011;2947;52.276;9.946;2023-09-19T10:40:54;7.60;;;2.03;;
5841;SDS011;2947;52.276;9.946;2023-09-19T10:43:34;10.32;;;1.90;;
5841;SDS011;2947;52.276;9.946;2023-09-19T10:46:06;5.22;;;1.50;;
5841;SDS011;2947;52.276;9.946;2023-09-19T10:48:35;11.45;;;2.28;;
5841;SDS011;2947;52.276;9.946;2023-09-19T10:53:55;5.20;;;1.30;;
5841;SDS011;2947;52.276;9.946;2023-09-19T10:56:38;9.27;;;2.30;;
5841;SDS011;2947;52.276;9.946;2023-09-19T10:59:10;8.98;;;2.03;;
5841;SDS011;2947;52.276;9.946;2023-09-19T11:01:41;7.00;;;1.70;;
5841;SDS011;2947;52.276;9.946;2023-09-19T11:04:28;7.88;;;2.13;;
5841;SDS011;2947;52.276;9.946;2023-09-19T11:07:02;8.05;;;2.25;;
5841;SDS011;2947;52.276;9.946;2023-09-19T11:14:56;10.45;;;1.95;;
5841;SDS011;2947;52.276;9.946;2023-09-19T11:17:32;5.68;;;1.73;;
5841;SDS011;2947;52.276;9.946;2023-09-19T11:30:47;12.68;;;2.35;;
5841;SDS011;2947;52.276;9.946;2023-09-19T11:33:21;9.10;;;2.63;;
5841;SDS011;2947;52.276;9.946;2023-09-19T11:36:07;13.63;;;3.10;;
5841;SDS011;2947;52.276;9.946;2023-09-19T11:43:53;10.25;;;2.47;;
5841;SDS011;2947;52.276;9.946;2023-09-19T11:49:17;6.00;;;2.00;;
5841;SDS011;2947;52.276;9.946;2023-09-19T11:51:49;12.00;;;2.75;;
5841;SDS011;2947;52.276;9.946;2023-09-19T11:54:19;10.60;;;2.42;;
5841;SDS011;2947;52.276;9.946;2023-09-19T11:56:51;6.75;;;2.47;;
5841;SDS011;2947;52.276;9.946;2023-09-19T11:59:22;10.63;;;2.25;;
5841;SDS011;2947;52.276;9.946;2023-09-19T12:02:01;8.10;;;2.28;;
5841;SDS011;2947;52.276;9.946;2023-09-19T12:04:43;7.68;;;2.00;;
5841;SDS011;2947;52.276;9.946;2023-09-19T12:07:13;7.72;;;2.05;;
5841;SDS011;2947;52.276;9.946;2023-09-19T12:09:41;7.82;;;2.38;;
5841;SDS011;2947;52.276;9.946;2023-09-19T12:12:19;10.93;;;2.40;;
5841;SDS011;2947;52.276;9.946;2023-09-19T12:14:49;8.15;;;2.50;;
5841;SDS011;2947;52.276;9.946;2023-09-19T12:17:17;10.15;;;1.90;;
5841;SDS011;2947;52.276;9.946;2023-09-19T12:19:55;12.13;;;2.08;;
5841;SDS011;2947;52.276;9.946;2023-09-19T12:22:21;9.15;;;2.33;;
5841;SDS011;2947;52.276;9.946;2023-09-19T12:24:48;9.32;;;1.85;;
5841;SDS011;2947;52.276;9.946;2023-09-19T12:27:15;10.10;;;3.00;;
5841;SDS011;2947;52.276;9.946;2023-09-19T12:32:14;5.72;;;2.20;;
5841;SDS011;2947;52.276;9.946;2023-09-19T12:34:42;12.60;;;1.88;;
5841;SDS011;2947;52.276;9.946;2023-09-19T12:37:17;9.88;;;2.40;;
5841;SDS011;2947;52.276;9.946;2023-09-19T12:39:46;8.57;;;2.22;;
5841;SDS011;2947;52.276;9.946;2023-09-19T12:42:16;7.25;;;2.10;;
5841;SDS011;2947;52.276;9.946;2023-09-19T12:44:45;9.82;;;2.65;;
5841;SDS011;2947;52.276;9.946;2023-09-19T12:47:14;9.40;;;2.20;;
5841;SDS011;2947;52.276;9.946;2023-09-19T12:52:45;10.32;;;2.53;;
5841;SDS011;2947;52.276;9.946;2023-09-19T12:55:23;10.10;;;2.70;;
5841;SDS011;2947;52.276;9.946;2023-09-19T12:58:13;10.10;;;3.63;;
5841;SDS011;2947;52.276;9.946;2023-09-19T13:00:43;8.68;;;2.22;;
5841;SDS011;2947;52.276;9.946;2023-09-19T13:03:14;9.63;;;1.95;;
5841;SDS011;2947;52.276;9.946;2023-09-19T13:05:47;14.95;;;2.33;;
5841;SDS011;2947;52.276;9.946;2023-09-19T13:08:30;5.45;;;2.08;;
5841;SDS011;2947;52.276;9.946;2023-09-19T13:14:14;7.45;;;2.50;;
5841;SDS011;2947;52.276;9.946;2023-09-19T13:17:05;9.20;;;2.78;;
5841;SDS011;2947;52.276;9.946;2023-09-19T13:19:41;10.05;;;2.20;;
5841;SDS011;2947;52.276;9.946;2023-09-19T13:22:40;11.10;;;2.13;;
5841;SDS011;2947;52.276;9.946;2023-09-19T13:25:15;11.85;;;2.03;;
5841;SDS011;2947;52.276;9.946;2023-09-19T13:27:52;8.05;;;1.98;;
5841;SDS011;2947;52.276;9.946;2023-09-19T13:30:21;10.15;;;2.47;;
5841;SDS011;2947;52.276;9.946;2023-09-19T13:32:50;6.97;;;2.15;;
5841;SDS011;2947;52.276;9.946;2023-09-19T13:35:17;7.25;;;1.98;;
5841;SDS011;2947;52.276;9.946;2023-09-19T13:37:44;5.50;;;2.15;;
5841;SDS011;2947;52.276;9.946;2023-09-19T13:40:14;6.63;;;1.80;;
5841;SDS011;2947;52.276;9.946;2023-09-19T13:42:40;5.63;;;2.03;;
5841;SDS011;2947;52.276;9.946;2023-09-19T13:45:07;11.77;;;2.38;;
5841;SDS011;2947;52.276;9.946;2023-09-19T13:47:36;4.68;;;1.70;;
5841;SDS011;2947;52.276;9.946;2023-09-19T13:50:05;6.60;;;2.10;;
5841;SDS011;2947;52.276;9.946;2023-09-19T13:52:32;8.68;;;2.13;;
5841;SDS011;2947;52.276;9.946;2023-09-19T13:54:58;7.70;;;2.10;;
5841;SDS011;2947;52.276;9.946;2023-09-19T13:57:24;8.68;;;2.45;;
5841;SDS011;2947;52.276;9.946;2023-09-19T13:59:51;7.95;;;2.50;;
5841;SDS011;2947;52.276;9.946;2023-09-19T14:02:19;6.20;;;1.95;;
5841;SDS011;2947;52.276;9.946;2023-09-19T14:04:48;4.10;;;1.60;;
5841;SDS011;2947;52.276;9.946;2023-09-19T14:07:17;9.52;;;2.40;;
5841;SDS011;2947;52.276;9.946;2023-09-19T14:09:44;7.97;;;2.75;;
5841;SDS011;2947;52.276;9.946;2023-09-19T14:12:11;7.82;;;2.20;;
5841;SDS011;2947;52.276;9.946;2023-09-19T14:14:37;8.40;;;1.83;;
5841;SDS011;2947;52.276;9.946;2023-09-19T14:17:03;6.63;;;2.15;;
5841;SDS011;2947;52.276;9.946;2023-09-19T14:19:30;7.88;;;2.88;;
5841;SDS011;2947;52.276;9.946;2023-09-19T14:21:56;7.95;;;2.03;;
5841;SDS011;2947;52.276;9.946;2023-09-19T14:24:21;11.00;;;2.55;;
5841;SDS011;2947;52.276;9.946;2023-09-19T14:26:48;14.15;;;3.00;;
5841;SDS011;2947;52.276;9.946;2023-09-19T14:29:14;7.00;;;2.00;;
5841;SDS011;2947;52.276;9.946;2023-09-19T14:31:40;5.40;;;2.15;;
5841;SDS011;2947;52.276;9.946;2023-09-19T14:34:07;12.88;;;2.42;;
5841;SDS011;2947;52.276;9.946;2023-09-19T14:36:35;8.50;;;2.70;;
5841;SDS011;2947;52.276;9.946;2023-09-19T14:39:03;9.05;;;2.50;;
5841;SDS011;2947;52.276;9.946;2023-09-19T14:41:30;10.68;;;2.75;;
5841;SDS011;2947;52.276;9.946;2023-09-19T14:43:56;10.40;;;2.13;;
5841;SDS011;2947;52.276;9.946;2023-09-19T14:46:21;4.85;;;1.90;;
5841;SDS011;2947;52.276;9.946;2023-09-19T14:48:49;7.32;;;2.67;;
5841;SDS011;2947;52.276;9.946;2023-09-19T14:51:18;7.18;;;2.50;;
5841;SDS011;2947;52.276;9.946;2023-09-19T14:53:44;14.63;;;2.95;;
5841;SDS011;2947;52.276;9.946;2023-09-19T14:56:11;10.55;;;2.70;;
5841;SDS011;2947;52.276;9.946;2023-09-19T14:58:38;12.38;;;2.88;;
5841;SDS011;2947;52.276;9.946;2023-09-19T15:01:05;8.85;;;2.35;;
5841;SDS011;2947;52.276;9.946;2023-09-19T15:03:35;5.63;;;2.22;;
5841;SDS011;2947;52.276;9.946;2023-09-19T15:06:04;6.07;;;2.17;;
5841;SDS011;2947;52.276;9.946;2023-09-19T15:08:35;9.05;;;2.05;;
5841;SDS011;2947;52.276;9.946;2023-09-19T15:11:06;6.10;;;2.20;;
5841;SDS011;2947;52.276;9.946;2023-09-19T15:13:32;11.45;;;2.10;;
5841;SDS011;2947;52.276;9.946;2023-09-19T15:16:00;8.43;;;2.13;;
5841;SDS011;2947;52.276;9.946;2023-09-19T15:18:34;7.00;;;1.88;;
5841;SDS011;2947;52.276;9.946;2023-09-19T15:21:03;8.32;;;2.47;;
5841;SDS011;2947;52.276;9.946;2023-09-19T15:23:32;5.05;;;1.73;;
5841;SDS011;2947;52.276;9.946;2023-09-19T15:26:02;6.10;;;1.88;;
5841;SDS011;2947;52.276;9.946;2023-09-19T15:28:30;5.57;;;1.98;;
5841;SDS011;2947;52.276;9.946;2023-09-19T15:31:04;5.78;;;2.00;;
5841;SDS011;2947;52.276;9.946;2023-09-19T15:33:32;8.10;;;1.70;;
5841;SDS011;2947;52.276;9.946;2023-09-19T15:36:09;6.20;;;2.50;;
5841;SDS011;2947;52.276;9.946;2023-09-19T15:38:55;6.40;;;1.65;;
5841;SDS011;2947;52.276;9.946;2023-09-19T15:41:36;8.10;;;1.88;;
5841;SDS011;2947;52.276;9.946;2023-09-19T15:44:11;6.72;;;1.95;;
5841;SDS011;2947;52.276;9.946;2023-09-19T15:46:40;5.60;;;1.63;;
5841;SDS011;2947;52.276;9.946;2023-09-19T15:49:07;3.92;;;1.30;;
5841;SDS011;2947;52.276;9.946;2023-09-19T15:51:33;5.43;;;1.83;;
5841;SDS011;2947;52.276;9.946;2023-09-19T15:54:24;5.00;;;1.98;;
5841;SDS011;2947;52.276;9.946;2023-09-19T15:56:50;5.13;;;1.65;;
5841;SDS011;2947;52.276;9.946;2023-09-19T15:59:16;9.30;;;2.75;;
5841;SDS011;2947;52.276;9.946;2023-09-19T16:01:43;4.25;;;1.52;;
5841;SDS011;2947;52.276;9.946;2023-09-19T16:04:09;8.05;;;1.58;;
5841;SDS011;2947;52.276;9.946;2023-09-19T16:06:37;6.38;;;1.60;;
5841;SDS011;2947;52.276;9.946;2023-09-19T16:09:03;5.50;;;1.42;;
5841;SDS011;2947;52.276;9.946;2023-09-19T16:11:34;5.88;;;1.50;;
5841;SDS011;2947;52.276;9.946;2023-09-19T16:14:00;12.43;;;1.70;;
5841;SDS011;2947;52.276;9.946;2023-09-19T16:16:28;4.88;;;1.50;;
5841;SDS011;2947;52.276;9.946;2023-09-19T16:19:01;7.75;;;1.92;;
5841;SDS011;2947;52.276;9.946;2023-09-19T16:21:31;7.60;;;1.92;;
5841;SDS011;2947;52.276;9.946;2023-09-19T16:24:00;3.85;;;1.52;;
5841;SDS011;2947;52.276;9.946;2023-09-19T16:26:26;8.13;;;1.77;;
5841;SDS011;2947;52.276;9.946;2023-09-19T16:28:54;7.53;;;2.00;;
5841;SDS011;2947;52.276;9.946;2023-09-19T16:31:25;7.25;;;1.70;;